sensor_id;sensor_type;location;lat;lon;timestamp;P1;durP1;ratioP1;P2;durP2;ratioP2
4650;SDS011;2338;49.602;8.722;2023-03-19T00:02:23;9.50;;;5.30;;
4650;SDS011;2338;49.602;8.722;2023-03-19T00:05:09;9.13;;;5.17;;
4650;SDS011;2338;49.602;8.722;2023-03-19T00:07:54;7.90;;;4.73;;
4650;SDS011;2338;49.602;8.722;2023-03-19T00:10:41;8.50;;;6.17;;
4650;SDS011;2338;49.602;8.722;2023-03-19T00:13:27;7.77;;;5.60;;
4650;SDS011;2338;49.602;8.722;2023-03-19T00:16:12;7.67;;;4.80;;
4650;SDS011;2338;49.602;8.722;2023-03-19T00:18:58;12.93;;;7.00;;
4650;SDS011;2338;49.602;8.722;2023-03-19T00:21:45;9.13;;;5.37;;
4650;SDS011;2338;49.602;8.722;2023-03-19T00:24:30;7.63;;;4.70;;
4650;SDS011;2338;49.602;8.722;2023-03-19T00:27:18;8.30;;;4.83;;
4650;SDS011;2338;49.602;8.722;2023-03-19T00:30:04;9.40;;;5.10;;
4650;SDS011;2338;49.602;8.722;2023-03-19T00:32:51;11.00;;;4.40;;
4650;SDS011;2338;49.602;8.722;2023-03-19T00:35:37;12.87;;;5.27;;
4650;SDS011;2338;49.602;8.722;2023-03-19T00:38:24;8.00;;;5.10;;
4650;SDS011;2338;49.602;8.722;2023-03-19T00:41:09;9.83;;;6.80;;
4650;SDS011;2338;49.602;8.722;2023-03-19T00:43:57;9.40;;;6.50;;
4650;SDS011;2338;49.602;8.722;2023-03-19T00:46:42;7.23;;;5.43;;
4650;SDS011;2338;49.602;8.722;2023-03-19T00:49:28;9.00;;;5.43;;
4650;SDS011;2338;49.602;8.722;2023-03-19T00:52:14;9.17;;;5.43;;
4650;SDS011;2338;49.602;8.722;2023-03-19T00:55:00;12.97;;;6.07;;
4650;SDS011;2338;49.602;8.722;2023-03-19T00:57:45;10.13;;;6.50;;
4650;SDS011;2338;49.602;8.722;2023-03-19T01:00:32;18.00;;;6.00;;
4650;SDS011;2338;49.602;8.722;2023-03-19T01:03:19;9.77;;;7.00;;
4650;SDS011;2338;49.602;8.722;2023-03-19T01:06:05;13.43;;;8.17;;
4650;SDS011;2338;49.602;8.722;2023-03-19T01:08:50;9.90;;;7.70;;
4650;SDS011;2338;49.602;8.722;2023-03-19T01:11:36;11.77;;;8.20;;
4650;SDS011;2338;49.602;8.722;2023-03-19T01:14:22;23.83;;;11.33;;
4650;SDS011;2338;49.602;8.722;2023-03-19T01:17:09;13.27;;;8.77;;
4650;SDS011;2338;49.602;8.722;2023-03-19T01:19:55;12.70;;;8.93;;
4650;SDS011;2338;49.602;8.722;2023-03-19T01:22:41;11.83;;;9.90;;
4650;SDS011;2338;49.602;8.722;2023-03-19T01:25:27;14.50;;;9.43;;
4650;SDS011;2338;49.602;8.722;2023-03-19T01:28:13;18.83;;;9.57;;
4650;SDS011;2338;49.602;8.722;2023-03-19T01:30:59;11.67;;;8.97;;
4650;SDS011;2338;49.602;8.722;2023-03-19T01:33:46;11.43;;;8.83;;
4650;SDS011;2338;49.602;8.722;2023-03-19T01:36:32;17.00;;;9.20;;
4650;SDS011;2338;49.602;8.722;2023-03-19T01:39:17;13.10;;;8.40;;
4650;SDS011;2338;49.602;8.722;2023-03-19T01:42:03;13.47;;;8.00;;
4650;SDS011;2338;49.602;8.722;2023-03-19T01:44:49;8.60;;;6.50;;
4650;SDS011;2338;49.602;8.722;2023-03-19T01:47:35;9.60;;;7.07;;
4650;SDS011;2338;49.602;8.722;2023-03-19T01:50:24;11.37;;;7.63;;
4650;SDS011;2338;49.602;8.722;2023-03-19T01:53:22;8.80;;;6.50;;
4650;SDS011;2338;49.602;8.722;2023-03-19T01:56:12;11.03;;;7.10;;
4650;SDS011;2338;49.602;8.722;2023-03-19T01:59:01;10.50;;;6.73;;
4650;SDS011;2338;49.602;8.722;2023-03-19T02:01:51;13.40;;;8.73;;
4650;SDS011;2338;49.602;8.722;2023-03-19T02:04:41;11.40;;;7.30;;
4650;SDS011;2338;49.602;8.722;2023-03-19T02:07:30;11.73;;;6.40;;
4650;SDS011;2338;49.602;8.722;2023-03-19T02:10:17;9.27;;;6.27;;
4650;SDS011;2338;49.602;8.722;2023-03-19T02:13:05;8.57;;;5.30;;
4650;SDS011;2338;49.602;8.722;2023-03-19T02:15:50;12.00;;;6.33;;
4650;SDS011;2338;49.602;8.722;2023-03-19T02:18:36;11.70;;;7.17;;
4650;SDS011;2338;49.602;8.722;2023-03-19T02:21:22;12.40;;;7.00;;
4650;SDS011;2338;49.602;8.722;2023-03-19T02:24:10;11.33;;;7.00;;
4650;SDS011;2338;49.602;8.722;2023-03-19T02:27:01;11.30;;;7.20;;
4650;SDS011;2338;49.602;8.722;2023-03-19T02:29:47;10.40;;;6.93;;
4650;SDS011;2338;49.602;8.722;2023-03-19T02:32:32;11.47;;;6.83;;
4650;SDS011;2338;49.602;8.722;2023-03-19T02:35:18;9.13;;;7.07;;
4650;SDS011;2338;49.602;8.722;2023-03-19T02:38:04;9.50;;;7.20;;
4650;SDS011;2338;49.602;8.722;2023-03-19T02:40:50;9.17;;;6.40;;
4650;SDS011;2338;49.602;8.722;2023-03-19T02:43:40;8.50;;;6.50;;
4650;SDS011;2338;49.602;8.722;2023-03-19T02:46:26;10.40;;;6.50;;
4650;SDS011;2338;49.602;8.722;2023-03-19T02:49:12;12.23;;;6.83;;
4650;SDS011;2338;49.602;8.722;2023-03-19T02:51:58;10.73;;;6.67;;
4650;SDS011;2338;49.602;8.722;2023-03-19T02:54:44;8.60;;;6.10;;
4650;SDS011;2338;49.602;8.722;2023-03-19T02:57:31;10.37;;;6.43;;
4650;SDS011;2338;49.602;8.722;2023-03-19T03:00:18;8.50;;;5.40;;
4650;SDS011;2338;49.602;8.722;2023-03-19T03:03:03;8.57;;;5.63;;
4650;SDS011;2338;49.602;8.722;2023-03-19T03:05:50;8.90;;;6.30;;
4650;SDS011;2338;49.602;8.722;2023-03-19T03:08:36;10.77;;;6.63;;
4650;SDS011;2338;49.602;8.722;2023-03-19T03:11:22;7.80;;;6.23;;
4650;SDS011;2338;49.602;8.722;2023-03-19T03:14:07;11.67;;;6.70;;
4650;SDS011;2338;49.602;8.722;2023-03-19T03:16:55;11.43;;;7.10;;
4650;SDS011;2338;49.602;8.722;2023-03-19T03:19:41;10.17;;;6.13;;
4650;SDS011;2338;49.602;8.722;2023-03-19T03:22:27;9.77;;;7.17;;
4650;SDS011;2338;49.602;8.722;2023-03-19T03:25:12;7.97;;;5.90;;
4650;SDS011;2338;49.602;8.722;2023-03-19T03:27:58;12.20;;;6.23;;
4650;SDS011;2338;49.602;8.722;2023-03-19T03:30:44;12.90;;;7.10;;
4650;SDS011;2338;49.602;8.722;2023-03-19T03:33:31;7.87;;;6.30;;
4650;SDS011;2338;49.602;8.722;2023-03-19T03:36:17;10.13;;;7.00;;
4650;SDS011;2338;49.602;8.722;2023-03-19T03:39:03;11.93;;;6.50;;
4650;SDS011;2338;49.602;8.722;2023-03-19T03:41:49;18.13;;;6.77;;
4650;SDS011;2338;49.602;8.722;2023-03-19T03:44:35;7.03;;;5.63;;
4650;SDS011;2338;49.602;8.722;2023-03-19T03:47:21;9.97;;;6.67;;
4650;SDS011;2338;49.602;8.722;2023-03-19T03:50:08;9.43;;;6.67;;
4650;SDS011;2338;49.602;8.722;2023-03-19T03:52:55;7.23;;;6.03;;
4650;SDS011;2338;49.602;8.722;2023-03-19T03:55:41;14.73;;;7.13;;
4650;SDS011;2338;49.602;8.722;2023-03-19T03:58:26;9.50;;;6.23;;
4650;SDS011;2338;49.602;8.722;2023-03-19T04:01:12;7.97;;;6.00;;
4650;SDS011;2338;49.602;8.722;2023-03-19T04:04:00;9.37;;;6.87;;
4650;SDS011;2338;49.602;8.722;2023-03-19T04:06:46;8.93;;;6.37;;
4650;SDS011;2338;49.602;8.722;2023-03-19T04:09:32;13.70;;;6.10;;
4650;SDS011;2338;49.602;8.722;2023-03-19T04:12:18;10.17;;;6.40;;
4650;SDS011;2338;49.602;8.722;2023-03-19T04:15:05;7.40;;;5.90;;
4650;SDS011;2338;49.602;8.722;2023-03-19T04:17:51;10.43;;;6.77;;
4650;SDS011;2338;49.602;8.722;2023-03-19T04:20:37;11.33;;;7.83;;
4650;SDS011;2338;49.602;8.722;2023-03-19T04:23:25;12.10;;;7.30;;
4650;SDS011;2338;49.602;8.722;2023-03-19T04:26:11;10.30;;;6.13;;
4650;SDS011;2338;49.602;8.722;2023-03-19T04:28:57;10.33;;;6.80;;
4650;SDS011;2338;49.602;8.722;2023-03-19T04:31:42;8.43;;;7.10;;
4650;SDS011;2338;49.602;8.722;2023-03-19T04:34:28;11.53;;;8.40;;
4650;SDS011;2338;49.602;8.722;2023-03-19T04:37:14;9.90;;;7.60;;
4650;SDS011;2338;49.602;8.722;2023-03-19T04:40:01;8.50;;;6.70;;
4650;SDS011;2338;49.602;8.722;2023-03-19T04:42:48;9.53;;;7.17;;
4650;SDS011;2338;49.602;8.722;2023-03-19T04:45:33;8.53;;;6.70;;
4650;SDS011;2338;49.602;8.722;2023-03-19T04:48:19;13.93;;;6.40;;
4650;SDS011;2338;49.602;8.722;2023-03-19T04:51:04;11.17;;;6.33;;
4650;SDS011;2338;49.602;8.722;2023-03-19T04:53:52;9.80;;;6.63;;
4650;SDS011;2338;49.602;8.722;2023-03-19T04:56:39;10.77;;;7.33;;
4650;SDS011;2338;49.602;8.722;2023-03-19T04:59:25;13.43;;;7.63;;
4650;SDS011;2338;49.602;8.722;2023-03-19T05:02:11;7.33;;;6.20;;
4650;SDS011;2338;49.602;8.722;2023-03-19T05:04:57;9.80;;;6.93;;
4650;SDS011;2338;49.602;8.722;2023-03-19T05:07:42;9.20;;;7.50;;
4650;SDS011;2338;49.602;8.722;2023-03-19T05:10:28;11.13;;;7.10;;
4650;SDS011;2338;49.602;8.722;2023-03-19T05:13:16;8.47;;;7.30;;
4650;SDS011;2338;49.602;8.722;2023-03-19T05:16:01;9.97;;;7.80;;
4650;SDS011;2338;49.602;8.722;2023-03-19T05:18:47;10.03;;;7.73;;
4650;SDS011;2338;49.602;8.722;2023-03-19T05:21:33;15.17;;;8.60;;
4650;SDS011;2338;49.602;8.722;2023-03-19T05:24:18;13.73;;;7.57;;
4650;SDS011;2338;49.602;8.722;2023-03-19T05:27:04;10.60;;;8.00;;
4650;SDS011;2338;49.602;8.722;2023-03-19T05:29:51;14.00;;;7.47;;
4650;SDS011;2338;49.602;8.722;2023-03-19T05:32:36;8.27;;;6.10;;
4650;SDS011;2338;49.602;8.722;2023-03-19T05:35:23;12.93;;;6.53;;
4650;SDS011;2338;49.602;8.722;2023-03-19T05:38:10;8.87;;;6.80;;
4650;SDS011;2338;49.602;8.722;2023-03-19T05:40:56;11.30;;;6.40;;
4650;SDS011;2338;49.602;8.722;2023-03-19T05:43:46;8.07;;;5.70;;
4650;SDS011;2338;49.602;8.722;2023-03-19T05:46:33;12.63;;;6.10;;
4650;SDS011;2338;49.602;8.722;2023-03-19T05:49:19;9.70;;;7.10;;
4650;SDS011;2338;49.602;8.722;2023-03-19T05:52:05;11.27;;;6.80;;
4650;SDS011;2338;49.602;8.722;2023-03-19T05:54:51;17.20;;;7.20;;
4650;SDS011;2338;49.602;8.722;2023-03-19T05:57:36;8.13;;;6.57;;
4650;SDS011;2338;49.602;8.722;2023-03-19T06:00:22;8.70;;;5.97;;
4650;SDS011;2338;49.602;8.722;2023-03-19T06:03:09;8.67;;;6.67;;
4650;SDS011;2338;49.602;8.722;2023-03-19T06:05:55;13.63;;;6.23;;
4650;SDS011;2338;49.602;8.722;2023-03-19T06:08:41;10.57;;;6.80;;
4650;SDS011;2338;49.602;8.722;2023-03-19T06:11:27;16.37;;;6.90;;
4650;SDS011;2338;49.602;8.722;2023-03-19T06:14:13;7.67;;;6.60;;
4650;SDS011;2338;49.602;8.722;2023-03-19T06:16:58;11.20;;;6.87;;
4650;SDS011;2338;49.602;8.722;2023-03-19T06:19:45;9.43;;;6.77;;
4650;SDS011;2338;49.602;8.722;2023-03-19T06:22:31;9.07;;;6.83;;
4650;SDS011;2338;49.602;8.722;2023-03-19T06:25:17;12.17;;;6.93;;
4650;SDS011;2338;49.602;8.722;2023-03-19T06:28:03;9.93;;;6.77;;
4650;SDS011;2338;49.602;8.722;2023-03-19T06:30:48;9.00;;;6.57;;
4650;SDS011;2338;49.602;8.722;2023-03-19T06:33:34;9.10;;;6.50;;
4650;SDS011;2338;49.602;8.722;2023-03-19T06:36:21;9.17;;;6.50;;
4650;SDS011;2338;49.602;8.722;2023-03-19T06:39:07;9.33;;;6.90;;
4650;SDS011;2338;49.602;8.722;2023-03-19T06:41:53;10.23;;;9.00;;
4650;SDS011;2338;49.602;8.722;2023-03-19T06:44:38;16.80;;;9.67;;
4650;SDS011;2338;49.602;8.722;2023-03-19T06:47:25;11.93;;;9.40;;
4650;SDS011;2338;49.602;8.722;2023-03-19T06:50:11;11.90;;;8.80;;
4650;SDS011;2338;49.602;8.722;2023-03-19T06:52:58;8.90;;;6.70;;
4650;SDS011;2338;49.602;8.722;2023-03-19T06:55:45;10.67;;;7.40;;
4650;SDS011;2338;49.602;8.722;2023-03-19T06:58:31;10.77;;;7.43;;
4650;SDS011;2338;49.602;8.722;2023-03-19T07:01:18;11.90;;;8.43;;
4650;SDS011;2338;49.602;8.722;2023-03-19T07:04:04;11.17;;;7.73;;
4650;SDS011;2338;49.602;8.722;2023-03-19T07:06:50;12.23;;;8.07;;
4650;SDS011;2338;49.602;8.722;2023-03-19T07:09:37;14.60;;;9.30;;
4650;SDS011;2338;49.602;8.722;2023-03-19T07:12:23;13.60;;;9.40;;
4650;SDS011;2338;49.602;8.722;2023-03-19T07:15:10;14.40;;;9.00;;
4650;SDS011;2338;49.602;8.722;2023-03-19T07:17:56;12.70;;;8.53;;
4650;SDS011;2338;49.602;8.722;2023-03-19T07:20:42;13.37;;;9.70;;
4650;SDS011;2338;49.602;8.722;2023-03-19T07:23:27;15.27;;;10.20;;
4650;SDS011;2338;49.602;8.722;2023-03-19T07:26:15;12.30;;;10.33;;
4650;SDS011;2338;49.602;8.722;2023-03-19T07:29:01;12.70;;;9.47;;
4650;SDS011;2338;49.602;8.722;2023-03-19T07:31:47;13.37;;;9.17;;
4650;SDS011;2338;49.602;8.722;2023-03-19T07:34:32;14.37;;;9.30;;
4650;SDS011;2338;49.602;8.722;2023-03-19T07:37:18;12.97;;;9.60;;
4650;SDS011;2338;49.602;8.722;2023-03-19T07:40:04;17.00;;;11.50;;
4650;SDS011;2338;49.602;8.722;2023-03-19T07:42:51;14.37;;;11.00;;
4650;SDS011;2338;49.602;8.722;2023-03-19T07:45:37;12.80;;;9.70;;
4650;SDS011;2338;49.602;8.722;2023-03-19T07:48:22;12.03;;;8.50;;
4650;SDS011;2338;49.602;8.722;2023-03-19T07:51:08;15.80;;;9.13;;
4650;SDS011;2338;49.602;8.722;2023-03-19T07:53:54;10.20;;;8.67;;
4650;SDS011;2338;49.602;8.722;2023-03-19T07:56:39;11.27;;;8.80;;
4650;SDS011;2338;49.602;8.722;2023-03-19T07:59:26;10.40;;;7.90;;
4650;SDS011;2338;49.602;8.722;2023-03-19T08:02:12;12.67;;;8.37;;
4650;SDS011;2338;49.602;8.722;2023-03-19T08:04:58;12.83;;;8.70;;
4650;SDS011;2338;49.602;8.722;2023-03-19T08:07:45;11.60;;;8.90;;
4650;SDS011;2338;49.602;8.722;2023-03-19T08:10:32;11.83;;;10.50;;
4650;SDS011;2338;49.602;8.722;2023-03-19T08:13:17;11.93;;;9.27;;
4650;SDS011;2338;49.602;8.722;2023-03-19T08:16:04;12.03;;;9.97;;
4650;SDS011;2338;49.602;8.722;2023-03-19T08:18:51;13.73;;;9.80;;
4650;SDS011;2338;49.602;8.722;2023-03-19T08:21:36;16.93;;;10.33;;
4650;SDS011;2338;49.602;8.722;2023-03-19T08:24:22;17.77;;;10.97;;
4650;SDS011;2338;49.602;8.722;2023-03-19T08:27:08;13.37;;;11.00;;
4650;SDS011;2338;49.602;8.722;2023-03-19T08:29:53;16.37;;;10.40;;
4650;SDS011;2338;49.602;8.722;2023-03-19T08:32:41;18.10;;;10.07;;
4650;SDS011;2338;49.602;8.722;2023-03-19T08:35:27;16.70;;;10.30;;
4650;SDS011;2338;49.602;8.722;2023-03-19T08:38:14;11.90;;;9.07;;
4650;SDS011;2338;49.602;8.722;2023-03-19T08:40:59;9.47;;;7.47;;
4650;SDS011;2338;49.602;8.722;2023-03-19T08:43:47;11.97;;;9.23;;
4650;SDS011;2338;49.602;8.722;2023-03-19T08:46:32;10.27;;;7.90;;
4650;SDS011;2338;49.602;8.722;2023-03-19T08:49:19;11.33;;;7.83;;
4650;SDS011;2338;49.602;8.722;2023-03-19T08:52:05;9.67;;;7.10;;
4650;SDS011;2338;49.602;8.722;2023-03-19T08:54:50;10.70;;;6.50;;
4650;SDS011;2338;49.602;8.722;2023-03-19T08:57:36;7.73;;;6.70;;
4650;SDS011;2338;49.602;8.722;2023-03-19T09:00:22;10.97;;;6.20;;
4650;SDS011;2338;49.602;8.722;2023-03-19T09:03:08;6.50;;;4.63;;
4650;SDS011;2338;49.602;8.722;2023-03-19T09:05:57;14.43;;;5.83;;
4650;SDS011;2338;49.602;8.722;2023-03-19T09:08:44;9.83;;;6.00;;
4650;SDS011;2338;49.602;8.722;2023-03-19T09:11:29;7.20;;;4.67;;
4650;SDS011;2338;49.602;8.722;2023-03-19T09:14:15;9.00;;;4.40;;
4650;SDS011;2338;49.602;8.722;2023-03-19T09:17:02;8.03;;;4.10;;
4650;SDS011;2338;49.602;8.722;2023-03-19T09:19:48;6.50;;;4.00;;
4650;SDS011;2338;49.602;8.722;2023-03-19T09:22:35;4.00;;;2.80;;
4650;SDS011;2338;49.602;8.722;2023-03-19T09:25:21;6.27;;;2.80;;
4650;SDS011;2338;49.602;8.722;2023-03-19T09:28:06;4.73;;;2.30;;
4650;SDS011;2338;49.602;8.722;2023-03-19T09:30:52;7.77;;;2.70;;
4650;SDS011;2338;49.602;8.722;2023-03-19T09:33:38;5.67;;;2.93;;
4650;SDS011;2338;49.602;8.722;2023-03-19T09:36:24;4.47;;;2.67;;
4650;SDS011;2338;49.602;8.722;2023-03-19T09:39:11;7.47;;;3.00;;
4650;SDS011;2338;49.602;8.722;2023-03-19T09:42:04;5.50;;;2.50;;
4650;SDS011;2338;49.602;8.722;2023-03-19T09:44:59;10.13;;;2.90;;
4650;SDS011;2338;49.602;8.722;2023-03-19T09:47:46;4.73;;;2.43;;
4650;SDS011;2338;49.602;8.722;2023-03-19T09:50:35;6.53;;;3.10;;
4650;SDS011;2338;49.602;8.722;2023-03-19T09:53:22;6.10;;;2.50;;
4650;SDS011;2338;49.602;8.722;2023-03-19T09:56:18;6.60;;;2.33;;
4650;SDS011;2338;49.602;8.722;2023-03-19T09:59:03;7.47;;;3.10;;
4650;SDS011;2338;49.602;8.722;2023-03-19T10:01:52;16.33;;;4.17;;
4650;SDS011;2338;49.602;8.722;2023-03-19T10:04:55;5.30;;;2.70;;
4650;SDS011;2338;49.602;8.722;2023-03-19T10:07:54;3.57;;;2.63;;
4650;SDS011;2338;49.602;8.722;2023-03-19T10:10:59;5.67;;;2.67;;
4650;SDS011;2338;49.602;8.722;2023-03-19T10:14:05;4.33;;;2.60;;
4650;SDS011;2338;49.602;8.722;2023-03-19T10:17:05;6.03;;;2.70;;
4650;SDS011;2338;49.602;8.722;2023-03-19T10:19:59;5.90;;;2.70;;
4650;SDS011;2338;49.602;8.722;2023-03-19T10:22:49;8.90;;;3.40;;
4650;SDS011;2338;49.602;8.722;2023-03-19T10:25:39;13.97;;;3.67;;
4650;SDS011;2338;49.602;8.722;2023-03-19T10:28:28;6.53;;;3.83;;
4650;SDS011;2338;49.602;8.722;2023-03-19T10:31:22;13.20;;;3.50;;
4650;SDS011;2338;49.602;8.722;2023-03-19T10:34:13;7.77;;;3.57;;
4650;SDS011;2338;49.602;8.722;2023-03-19T10:37:16;12.47;;;3.00;;
4650;SDS011;2338;49.602;8.722;2023-03-19T10:40:05;9.80;;;3.33;;
4650;SDS011;2338;49.602;8.722;2023-03-19T10:43:05;4.80;;;3.40;;
4650;SDS011;2338;49.602;8.722;2023-03-19T10:45:57;7.27;;;3.27;;
4650;SDS011;2338;49.602;8.722;2023-03-19T10:48:44;6.33;;;3.57;;
4650;SDS011;2338;49.602;8.722;2023-03-19T10:51:30;10.60;;;4.07;;
4650;SDS011;2338;49.602;8.722;2023-03-19T10:54:18;5.57;;;3.43;;
4650;SDS011;2338;49.602;8.722;2023-03-19T10:57:18;8.30;;;3.23;;
4650;SDS011;2338;49.602;8.722;2023-03-19T11:00:13;7.33;;;3.13;;
4650;SDS011;2338;49.602;8.722;2023-03-19T11:03:01;8.33;;;3.93;;
4650;SDS011;2338;49.602;8.722;2023-03-19T11:05:51;5.60;;;2.97;;
4650;SDS011;2338;49.602;8.722;2023-03-19T11:08:51;6.00;;;3.23;;
4650;SDS011;2338;49.602;8.722;2023-03-19T11:11:41;5.97;;;2.77;;
4650;SDS011;2338;49.602;8.722;2023-03-19T11:14:30;7.00;;;2.60;;
4650;SDS011;2338;49.602;8.722;2023-03-19T11:17:20;6.77;;;3.00;;
4650;SDS011;2338;49.602;8.722;2023-03-19T11:20:16;4.03;;;2.37;;
4650;SDS011;2338;49.602;8.722;2023-03-19T11:23:11;7.07;;;3.03;;
4650;SDS011;2338;49.602;8.722;2023-03-19T11:25:59;3.70;;;2.47;;
4650;SDS011;2338;49.602;8.722;2023-03-19T11:28:45;3.63;;;2.43;;
4650;SDS011;2338;49.602;8.722;2023-03-19T11:31:36;3.63;;;2.17;;
4650;SDS011;2338;49.602;8.722;2023-03-19T11:34:27;6.10;;;2.57;;
4650;SDS011;2338;49.602;8.722;2023-03-19T11:37:21;8.50;;;2.77;;
4650;SDS011;2338;49.602;8.722;2023-03-19T11:40:17;6.27;;;2.77;;
4650;SDS011;2338;49.602;8.722;2023-03-19T11:46:35;6.67;;;2.00;;
4650;SDS011;2338;49.602;8.722;2023-03-19T11:49:30;9.13;;;2.60;;
4650;SDS011;2338;49.602;8.722;2023-03-19T11:52:26;8.90;;;4.13;;
4650;SDS011;2338;49.602;8.722;2023-03-19T11:55:18;9.90;;;3.20;;
4650;SDS011;2338;49.602;8.722;2023-03-19T12:01:52;9.40;;;4.40;;
4650;SDS011;2338;49.602;8.722;2023-03-19T12:04:57;8.03;;;3.20;;
4650;SDS011;2338;49.602;8.722;2023-03-19T12:07:54;5.80;;;2.77;;
4650;SDS011;2338;49.602;8.722;2023-03-19T12:11:02;5.50;;;3.23;;
4650;SDS011;2338;49.602;8.722;2023-03-19T12:14:10;4.10;;;2.87;;
4650;SDS011;2338;49.602;8.722;2023-03-19T12:20:14;7.77;;;3.23;;
4650;SDS011;2338;49.602;8.722;2023-03-19T12:23:11;5.83;;;3.03;;
4650;SDS011;2338;49.602;8.722;2023-03-19T12:26:04;9.90;;;3.80;;
4650;SDS011;2338;49.602;8.722;2023-03-19T12:28:52;5.10;;;2.80;;
4650;SDS011;2338;49.602;8.722;2023-03-19T12:35:07;4.90;;;2.80;;
4650;SDS011;2338;49.602;8.722;2023-03-19T12:37:56;7.00;;;3.10;;
4650;SDS011;2338;49.602;8.722;2023-03-19T12:40:48;4.70;;;2.60;;
4650;SDS011;2338;49.602;8.722;2023-03-19T12:43:40;5.90;;;3.10;;
4650;SDS011;2338;49.602;8.722;2023-03-19T12:46:40;7.87;;;3.60;;
4650;SDS011;2338;49.602;8.722;2023-03-19T12:49:35;5.23;;;3.20;;
4650;SDS011;2338;49.602;8.722;2023-03-19T12:52:28;6.80;;;3.07;;
4650;SDS011;2338;49.602;8.722;2023-03-19T12:55:19;4.60;;;2.80;;
4650;SDS011;2338;49.602;8.722;2023-03-19T12:58:09;7.33;;;3.50;;
4650;SDS011;2338;49.602;8.722;2023-03-19T13:01:05;5.27;;;3.50;;
4650;SDS011;2338;49.602;8.722;2023-03-19T13:03:57;4.70;;;2.80;;
4650;SDS011;2338;49.602;8.722;2023-03-19T13:06:48;4.30;;;2.57;;
4650;SDS011;2338;49.602;8.722;2023-03-19T13:09:37;7.30;;;3.70;;
4650;SDS011;2338;49.602;8.722;2023-03-19T13:12:28;8.97;;;3.03;;
4650;SDS011;2338;49.602;8.722;2023-03-19T13:15:18;4.10;;;2.50;;
4650;SDS011;2338;49.602;8.722;2023-03-19T13:18:14;5.30;;;3.00;;
4650;SDS011;2338;49.602;8.722;2023-03-19T13:21:09;5.03;;;2.90;;
4650;SDS011;2338;49.602;8.722;2023-03-19T13:24:17;4.53;;;2.77;;
4650;SDS011;2338;49.602;8.722;2023-03-19T13:27:11;7.37;;;3.07;;
4650;SDS011;2338;49.602;8.722;2023-03-19T13:30:15;4.77;;;2.67;;
4650;SDS011;2338;49.602;8.722;2023-03-19T13:33:05;7.50;;;3.00;;
4650;SDS011;2338;49.602;8.722;2023-03-19T13:36:00;7.13;;;3.50;;
4650;SDS011;2338;49.602;8.722;2023-03-19T13:38:49;7.10;;;3.00;;
4650;SDS011;2338;49.602;8.722;2023-03-19T13:41:51;6.03;;;3.10;;
4650;SDS011;2338;49.602;8.722;2023-03-19T13:44:46;3.03;;;2.00;;
4650;SDS011;2338;49.602;8.722;2023-03-19T13:47:36;5.57;;;2.50;;
4650;SDS011;2338;49.602;8.722;2023-03-19T13:50:25;3.63;;;2.33;;
4650;SDS011;2338;49.602;8.722;2023-03-19T13:53:22;4.53;;;2.40;;
4650;SDS011;2338;49.602;8.722;2023-03-19T13:56:18;3.17;;;2.23;;
4650;SDS011;2338;49.602;8.722;2023-03-19T13:59:19;6.83;;;2.40;;
4650;SDS011;2338;49.602;8.722;2023-03-19T14:05:32;5.70;;;2.20;;
4650;SDS011;2338;49.602;8.722;2023-03-19T14:08:20;4.83;;;2.10;;
4650;SDS011;2338;49.602;8.722;2023-03-19T14:11:09;6.07;;;2.63;;
4650;SDS011;2338;49.602;8.722;2023-03-19T14:14:06;5.10;;;2.30;;
4650;SDS011;2338;49.602;8.722;2023-03-19T14:16:59;3.40;;;2.10;;
4650;SDS011;2338;49.602;8.722;2023-03-19T14:19:45;4.77;;;2.80;;
4650;SDS011;2338;49.602;8.722;2023-03-19T14:22:32;3.93;;;2.17;;
4650;SDS011;2338;49.602;8.722;2023-03-19T14:25:23;8.20;;;2.60;;
4650;SDS011;2338;49.602;8.722;2023-03-19T14:28:10;5.40;;;2.27;;
4650;SDS011;2338;49.602;8.722;2023-03-19T14:31:00;3.67;;;1.87;;
4650;SDS011;2338;49.602;8.722;2023-03-19T14:33:49;3.90;;;2.33;;
4650;SDS011;2338;49.602;8.722;2023-03-19T14:36:40;5.20;;;2.37;;
4650;SDS011;2338;49.602;8.722;2023-03-19T14:39:28;4.20;;;2.37;;
4650;SDS011;2338;49.602;8.722;2023-03-19T14:42:17;4.50;;;1.97;;
4650;SDS011;2338;49.602;8.722;2023-03-19T14:45:17;3.07;;;2.13;;
4650;SDS011;2338;49.602;8.722;2023-03-19T14:48:15;3.83;;;2.03;;
4650;SDS011;2338;49.602;8.722;2023-03-19T14:54:23;6.90;;;2.00;;
4650;SDS011;2338;49.602;8.722;2023-03-19T14:57:15;3.47;;;1.90;;
4650;SDS011;2338;49.602;8.722;2023-03-19T15:00:04;3.70;;;2.20;;
4650;SDS011;2338;49.602;8.722;2023-03-19T15:02:57;6.70;;;2.50;;
4650;SDS011;2338;49.602;8.722;2023-03-19T15:05:42;5.80;;;2.17;;
4650;SDS011;2338;49.602;8.722;2023-03-19T15:08:33;3.43;;;1.70;;
4650;SDS011;2338;49.602;8.722;2023-03-19T15:14:56;3.17;;;1.60;;
4650;SDS011;2338;49.602;8.722;2023-03-19T15:18:05;5.67;;;2.10;;
4650;SDS011;2338;49.602;8.722;2023-03-19T15:20:53;5.27;;;2.10;;
4650;SDS011;2338;49.602;8.722;2023-03-19T15:23:40;4.03;;;2.00;;
4650;SDS011;2338;49.602;8.722;2023-03-19T15:26:29;3.80;;;2.30;;
4650;SDS011;2338;49.602;8.722;2023-03-19T15:32:30;2.80;;;1.60;;
4650;SDS011;2338;49.602;8.722;2023-03-19T15:35:17;3.83;;;1.90;;
4650;SDS011;2338;49.602;8.722;2023-03-19T15:38:05;3.27;;;1.97;;
4650;SDS011;2338;49.602;8.722;2023-03-19T15:40:53;4.57;;;2.20;;
4650;SDS011;2338;49.602;8.722;2023-03-19T15:43:39;6.37;;;2.50;;
4650;SDS011;2338;49.602;8.722;2023-03-19T15:46:27;3.77;;;2.17;;
4650;SDS011;2338;49.602;8.722;2023-03-19T15:49:18;4.87;;;2.10;;
4650;SDS011;2338;49.602;8.722;2023-03-19T15:52:07;3.97;;;2.17;;
4650;SDS011;2338;49.602;8.722;2023-03-19T15:54:58;5.43;;;2.70;;
4650;SDS011;2338;49.602;8.722;2023-03-19T15:57:45;3.60;;;2.00;;
4650;SDS011;2338;49.602;8.722;2023-03-19T16:00:31;4.90;;;2.47;;
4650;SDS011;2338;49.602;8.722;2023-03-19T16:03:21;7.40;;;2.50;;
4650;SDS011;2338;49.602;8.722;2023-03-19T16:06:16;4.30;;;2.57;;
4650;SDS011;2338;49.602;8.722;2023-03-19T16:09:10;6.33;;;4.10;;
4650;SDS011;2338;49.602;8.722;2023-03-19T16:12:21;6.93;;;3.10;;
4650;SDS011;2338;49.602;8.722;2023-03-19T16:15:23;5.13;;;2.50;;
4650;SDS011;2338;49.602;8.722;2023-03-19T16:18:22;4.30;;;2.60;;
4650;SDS011;2338;49.602;8.722;2023-03-19T16:21:09;4.83;;;2.13;;
4650;SDS011;2338;49.602;8.722;2023-03-19T16:24:01;3.40;;;1.70;;
4650;SDS011;2338;49.602;8.722;2023-03-19T16:26:47;3.30;;;1.80;;
4650;SDS011;2338;49.602;8.722;2023-03-19T16:29:35;6.00;;;2.00;;
4650;SDS011;2338;49.602;8.722;2023-03-19T16:32:24;4.60;;;2.13;;
4650;SDS011;2338;49.602;8.722;2023-03-19T16:35:12;4.27;;;1.90;;
4650;SDS011;2338;49.602;8.722;2023-03-19T16:38:10;2.70;;;1.50;;
4650;SDS011;2338;49.602;8.722;2023-03-19T16:41:14;4.43;;;1.90;;
4650;SDS011;2338;49.602;8.722;2023-03-19T16:44:11;3.77;;;2.17;;
4650;SDS011;2338;49.602;8.722;2023-03-19T16:47:00;4.63;;;1.60;;
4650;SDS011;2338;49.602;8.722;2023-03-19T16:49:45;2.77;;;1.63;;
4650;SDS011;2338;49.602;8.722;2023-03-19T16:52:31;3.63;;;1.57;;
4650;SDS011;2338;49.602;8.722;2023-03-19T16:55:20;5.70;;;1.60;;
4650;SDS011;2338;49.602;8.722;2023-03-19T16:58:10;4.13;;;1.93;;
4650;SDS011;2338;49.602;8.722;2023-03-19T17:00:59;3.40;;;2.07;;
4650;SDS011;2338;49.602;8.722;2023-03-19T17:03:46;6.93;;;2.00;;
4650;SDS011;2338;49.602;8.722;2023-03-19T17:06:32;5.00;;;2.10;;
4650;SDS011;2338;49.602;8.722;2023-03-19T17:09:18;3.13;;;1.87;;
4650;SDS011;2338;49.602;8.722;2023-03-19T17:12:06;4.20;;;2.13;;
4650;SDS011;2338;49.602;8.722;2023-03-19T17:14:57;4.30;;;1.60;;
4650;SDS011;2338;49.602;8.722;2023-03-19T17:17:43;2.97;;;2.10;;
4650;SDS011;2338;49.602;8.722;2023-03-19T17:20:29;3.10;;;1.80;;
4650;SDS011;2338;49.602;8.722;2023-03-19T17:23:17;3.70;;;1.83;;
4650;SDS011;2338;49.602;8.722;2023-03-19T17:26:11;3.77;;;1.90;;
4650;SDS011;2338;49.602;8.722;2023-03-19T17:29:00;6.13;;;1.70;;
4650;SDS011;2338;49.602;8.722;2023-03-19T17:31:46;2.30;;;1.77;;
4650;SDS011;2338;49.602;8.722;2023-03-19T17:34:32;3.80;;;2.10;;
4650;SDS011;2338;49.602;8.722;2023-03-19T17:37:19;4.27;;;1.90;;
4650;SDS011;2338;49.602;8.722;2023-03-19T17:40:09;5.40;;;2.20;;
4650;SDS011;2338;49.602;8.722;2023-03-19T17:43:00;2.80;;;1.60;;
4650;SDS011;2338;49.602;8.722;2023-03-19T17:45:47;3.63;;;1.90;;
4650;SDS011;2338;49.602;8.722;2023-03-19T17:48:33;3.60;;;2.13;;
4650;SDS011;2338;49.602;8.722;2023-03-19T17:51:19;3.93;;;1.77;;